sensor_id;sensor_type;location;lat;lon;timestamp;P1;durP1;ratioP1;P2;durP2;ratioP2
24381;SDS011;12502;50.678;7.172;2022-09-12T00:02:15;35.20;;;23.92;;
24381;SDS011;12502;50.678;7.172;2022-09-12T00:07:17;29.27;;;20.45;;
24381;SDS011;12502;50.678;7.172;2022-09-12T00:12:18;32.20;;;20.70;;
24381;SDS011;12502;50.678;7.172;2022-09-12T00:17:20;30.73;;;21.25;;
24381;SDS011;12502;50.678;7.172;2022-09-12T00:22:22;29.13;;;21.30;;
24381;SDS011;12502;50.678;7.172;2022-09-12T00:27:23;31.38;;;21.60;;
24381;SDS011;12502;50.678;7.172;2022-09-12T00:32:25;31.85;;;21.65;;
24381;SDS011;12502;50.678;7.172;2022-09-12T00:37:27;32.33;;;21.90;;
24381;SDS011;12502;50.678;7.172;2022-09-12T00:42:28;28.75;;;20.20;;
24381;SDS011;12502;50.678;7.172;2022-09-12T00:47:30;29.23;;;21.42;;
24381;SDS011;12502;50.678;7.172;2022-09-12T00:52:34;29.55;;;20.55;;
24381;SDS011;12502;50.678;7.172;2022-09-12T01:02:58;32.28;;;21.85;;
24381;SDS011;12502;50.678;7.172;2022-09-12T01:08:04;29.65;;;22.00;;
24381;SDS011;12502;50.678;7.172;2022-09-12T01:13:07;34.03;;;23.15;;
24381;SDS011;12502;50.678;7.172;2022-09-12T01:56:14;35.60;;;24.15;;
24381;SDS011;12502;50.678;7.172;2022-09-12T02:01:26;39.25;;;24.23;;
24381;SDS011;12502;50.678;7.172;2022-09-12T02:06:32;35.08;;;22.88;;
24381;SDS011;12502;50.678;7.172;2022-09-12T02:11:56;35.10;;;23.90;;
24381;SDS011;12502;50.678;7.172;2022-09-12T02:17:05;34.70;;;22.60;;
24381;SDS011;12502;50.678;7.172;2022-09-12T02:22:13;38.03;;;24.38;;
24381;SDS011;12502;50.678;7.172;2022-09-12T02:28:00;43.05;;;26.58;;
24381;SDS011;12502;50.678;7.172;2022-09-12T02:32:55;35.55;;;24.95;;
24381;SDS011;12502;50.678;7.172;2022-09-12T02:38:08;34.90;;;24.75;;
24381;SDS011;12502;50.678;7.172;2022-09-12T02:43:14;34.20;;;23.75;;
24381;SDS011;12502;50.678;7.172;2022-09-12T02:48:23;35.85;;;23.75;;
24381;SDS011;12502;50.678;7.172;2022-09-12T02:53:29;33.95;;;22.83;;
24381;SDS011;12502;50.678;7.172;2022-09-12T02:58:31;35.47;;;23.25;;
24381;SDS011;12502;50.678;7.172;2022-09-12T03:03:43;40.15;;;24.77;;
24381;SDS011;12502;50.678;7.172;2022-09-12T03:09:02;37.42;;;24.80;;
24381;SDS011;12502;50.678;7.172;2022-09-12T03:24:35;37.40;;;23.77;;
24381;SDS011;12502;50.678;7.172;2022-09-12T03:29:42;37.03;;;24.42;;
24381;SDS011;12502;50.678;7.172;2022-09-12T03:34:46;36.80;;;23.63;;
24381;SDS011;12502;50.678;7.172;2022-09-12T03:39:47;38.67;;;25.52;;
24381;SDS011;12502;50.678;7.172;2022-09-12T03:44:49;35.17;;;22.42;;
24381;SDS011;12502;50.678;7.172;2022-09-12T03:49:51;36.92;;;22.92;;
24381;SDS011;12502;50.678;7.172;2022-09-12T03:54:53;43.88;;;25.48;;
24381;SDS011;12502;50.678;7.172;2022-09-12T03:59:54;41.22;;;24.67;;
24381;SDS011;12502;50.678;7.172;2022-09-12T04:04:56;39.47;;;24.00;;
24381;SDS011;12502;50.678;7.172;2022-09-12T04:09:58;43.17;;;26.27;;
24381;SDS011;12502;50.678;7.172;2022-09-12T04:14:59;45.33;;;26.13;;
24381;SDS011;12502;50.678;7.172;2022-09-12T04:20:01;44.45;;;27.38;;
24381;SDS011;12502;50.678;7.172;2022-09-12T04:25:03;46.25;;;27.67;;
24381;SDS011;12502;50.678;7.172;2022-09-12T04:30:06;49.13;;;28.25;;
24381;SDS011;12502;50.678;7.172;2022-09-12T04:35:09;46.05;;;28.40;;
24381;SDS011;12502;50.678;7.172;2022-09-12T04:40:12;48.50;;;28.40;;
24381;SDS011;12502;50.678;7.172;2022-09-12T04:45:14;58.55;;;29.73;;
24381;SDS011;12502;50.678;7.172;2022-09-12T04:50:16;45.53;;;27.63;;
24381;SDS011;12502;50.678;7.172;2022-09-12T04:55:19;47.65;;;28.85;;
24381;SDS011;12502;50.678;7.172;2022-09-12T05:00:21;50.00;;;28.98;;
24381;SDS011;12502;50.678;7.172;2022-09-12T05:05:24;53.70;;;27.50;;
24381;SDS011;12502;50.678;7.172;2022-09-12T05:10:26;53.47;;;28.52;;
24381;SDS011;12502;50.678;7.172;2022-09-12T05:15:28;51.20;;;27.10;;
24381;SDS011;12502;50.678;7.172;2022-09-12T05:20:31;48.85;;;27.08;;
24381;SDS011;12502;50.678;7.172;2022-09-12T05:25:33;53.60;;;30.07;;
24381;SDS011;12502;50.678;7.172;2022-09-12T05:30:35;60.40;;;30.33;;
24381;SDS011;12502;50.678;7.172;2022-09-12T05:35:37;54.40;;;27.85;;
24381;SDS011;12502;50.678;7.172;2022-09-12T05:40:39;62.47;;;32.00;;
24381;SDS011;12502;50.678;7.172;2022-09-12T05:45:40;53.15;;;30.05;;
24381;SDS011;12502;50.678;7.172;2022-09-12T05:50:42;55.35;;;30.67;;
24381;SDS011;12502;50.678;7.172;2022-09-12T05:55:44;54.83;;;30.30;;
24381;SDS011;12502;50.678;7.172;2022-09-12T06:00:45;63.42;;;33.78;;
24381;SDS011;12502;50.678;7.172;2022-09-12T06:05:48;76.35;;;37.25;;
24381;SDS011;12502;50.678;7.172;2022-09-12T06:10:50;67.65;;;35.05;;
24381;SDS011;12502;50.678;7.172;2022-09-12T06:16:03;67.72;;;34.45;;
24381;SDS011;12502;50.678;7.172;2022-09-12T06:21:16;64.50;;;32.67;;
24381;SDS011;12502;50.678;7.172;2022-09-12T06:26:18;63.35;;;34.45;;
24381;SDS011;12502;50.678;7.172;2022-09-12T06:31:27;64.57;;;35.97;;
24381;SDS011;12502;50.678;7.172;2022-09-12T06:36:37;64.97;;;37.13;;
24381;SDS011;12502;50.678;7.172;2022-09-12T06:41:41;69.75;;;36.22;;
24381;SDS011;12502;50.678;7.172;2022-09-12T06:46:44;66.65;;;36.20;;
24381;SDS011;12502;50.678;7.172;2022-09-12T06:51:47;57.80;;;33.38;;
24381;SDS011;12502;50.678;7.172;2022-09-12T06:56:48;53.38;;;30.95;;
24381;SDS011;12502;50.678;7.172;2022-09-12T07:01:50;57.90;;;34.33;;
24381;SDS011;12502;50.678;7.172;2022-09-12T07:06:52;53.67;;;31.27;;
24381;SDS011;12502;50.678;7.172;2022-09-12T07:11:53;47.95;;;29.05;;
24381;SDS011;12502;50.678;7.172;2022-09-12T07:16:55;52.78;;;30.27;;
24381;SDS011;12502;50.678;7.172;2022-09-12T07:21:57;45.85;;;27.00;;
24381;SDS011;12502;50.678;7.172;2022-09-12T07:26:59;41.92;;;25.45;;
24381;SDS011;12502;50.678;7.172;2022-09-12T07:32:00;37.75;;;24.05;;
24381;SDS011;12502;50.678;7.172;2022-09-12T07:37:02;33.13;;;22.65;;
24381;SDS011;12502;50.678;7.172;2022-09-12T07:42:04;33.33;;;20.88;;
24381;SDS011;12502;50.678;7.172;2022-09-12T07:47:07;30.08;;;20.77;;
24381;SDS011;12502;50.678;7.172;2022-09-12T07:52:09;32.35;;;20.35;;
24381;SDS011;12502;50.678;7.172;2022-09-12T07:57:10;32.10;;;20.27;;
24381;SDS011;12502;50.678;7.172;2022-09-12T08:02:14;28.63;;;19.23;;
24381;SDS011;12502;50.678;7.172;2022-09-12T08:07:18;29.05;;;19.90;;
24381;SDS011;12502;50.678;7.172;2022-09-12T08:12:20;30.80;;;19.10;;
24381;SDS011;12502;50.678;7.172;2022-09-12T08:17:21;23.90;;;16.02;;
24381;SDS011;12502;50.678;7.172;2022-09-12T08:22:23;20.17;;;14.75;;
24381;SDS011;12502;50.678;7.172;2022-09-12T08:27:25;20.27;;;14.52;;
24381;SDS011;12502;50.678;7.172;2022-09-12T08:32:27;17.55;;;14.27;;
24381;SDS011;12502;50.678;7.172;2022-09-12T08:37:29;17.85;;;13.73;;
24381;SDS011;12502;50.678;7.172;2022-09-12T08:48:32;16.17;;;11.95;;
24381;SDS011;12502;50.678;7.172;2022-09-12T08:53:34;17.02;;;11.57;;
24381;SDS011;12502;50.678;7.172;2022-09-12T08:58:41;14.38;;;10.95;;
24381;SDS011;12502;50.678;7.172;2022-09-12T09:14:42;10.32;;;8.98;;
24381;SDS011;12502;50.678;7.172;2022-09-12T09:20:01;12.40;;;10.05;;
24381;SDS011;12502;50.678;7.172;2022-09-12T09:25:28;12.93;;;9.27;;
24381;SDS011;12502;50.678;7.172;2022-09-12T09:30:41;10.35;;;9.00;;
24381;SDS011;12502;50.678;7.172;2022-09-12T09:35:51;9.95;;;8.05;;
24381;SDS011;12502;50.678;7.172;2022-09-12T09:41:06;8.70;;;7.65;;
24381;SDS011;12502;50.678;7.172;2022-09-12T09:46:31;9.75;;;7.72;;
24381;SDS011;12502;50.678;7.172;2022-09-12T09:51:37;9.85;;;8.10;;
24381;SDS011;12502;50.678;7.172;2022-09-12T09:56:41;7.43;;;6.70;;
24381;SDS011;12502;50.678;7.172;2022-09-12T10:01:44;8.07;;;6.88;;
24381;SDS011;12502;50.678;7.172;2022-09-12T10:06:46;7.70;;;6.90;;
24381;SDS011;12502;50.678;7.172;2022-09-12T10:11:52;11.88;;;8.07;;
24381;SDS011;12502;50.678;7.172;2022-09-12T10:16:55;7.75;;;6.70;;
24381;SDS011;12502;50.678;7.172;2022-09-12T10:21:58;7.40;;;6.65;;
24381;SDS011;12502;50.678;7.172;2022-09-12T10:37:52;7.63;;;6.03;;
24381;SDS011;12502;50.678;7.172;2022-09-12T10:42:59;7.72;;;6.30;;
24381;SDS011;12502;50.678;7.172;2022-09-12T10:53:28;6.47;;;5.45;;
24381;SDS011;12502;50.678;7.172;2022-09-12T10:58:58;5.80;;;5.30;;
24381;SDS011;12502;50.678;7.172;2022-09-12T11:25:42;5.40;;;4.35;;
24381;SDS011;12502;50.678;7.172;2022-09-12T11:30:54;5.20;;;3.90;;
24381;SDS011;12502;50.678;7.172;2022-09-12T11:36:05;5.03;;;3.60;;
24381;SDS011;12502;50.678;7.172;2022-09-12T11:41:20;5.32;;;3.60;;
24381;SDS011;12502;50.678;7.172;2022-09-12T11:46:36;4.47;;;3.78;;
24381;SDS011;12502;50.678;7.172;2022-09-12T12:02:35;6.10;;;3.47;;
24381;SDS011;12502;50.678;7.172;2022-09-12T12:07:49;3.28;;;2.88;;
24381;SDS011;12502;50.678;7.172;2022-09-12T12:12:52;4.43;;;2.95;;
24381;SDS011;12502;50.678;7.172;2022-09-12T12:18:19;6.03;;;2.67;;
24381;SDS011;12502;50.678;7.172;2022-09-12T12:23:33;4.10;;;3.42;;
24381;SDS011;12502;50.678;7.172;2022-09-12T12:38:45;5.90;;;3.85;;
24381;SDS011;12502;50.678;7.172;2022-09-12T12:43:47;9.02;;;4.07;;
24381;SDS011;12502;50.678;7.172;2022-09-12T12:54:53;7.90;;;4.70;;
24381;SDS011;12502;50.678;7.172;2022-09-12T13:00:07;7.03;;;4.00;;
24381;SDS011;12502;50.678;7.172;2022-09-12T13:05:26;6.25;;;5.00;;
24381;SDS011;12502;50.678;7.172;2022-09-12T13:10:30;4.30;;;3.88;;
24381;SDS011;12502;50.678;7.172;2022-09-12T13:20:43;8.48;;;4.10;;
24381;SDS011;12502;50.678;7.172;2022-09-12T13:25:56;6.13;;;4.10;;
24381;SDS011;12502;50.678;7.172;2022-09-12T13:31:02;6.90;;;4.53;;
24381;SDS011;12502;50.678;7.172;2022-09-12T13:52:39;4.47;;;3.95;;
24381;SDS011;12502;50.678;7.172;2022-09-12T13:57:54;4.25;;;3.80;;
24381;SDS011;12502;50.678;7.172;2022-09-12T14:02:57;4.63;;;4.05;;
24381;SDS011;12502;50.678;7.172;2022-09-12T14:08:18;4.53;;;4.13;;
24381;SDS011;12502;50.678;7.172;2022-09-12T14:13:24;5.38;;;3.55;;
24381;SDS011;12502;50.678;7.172;2022-09-12T14:18:27;4.57;;;3.78;;
24381;SDS011;12502;50.678;7.172;2022-09-12T14:23:41;5.50;;;3.15;;
24381;SDS011;12502;50.678;7.172;2022-09-12T14:28:45;6.18;;;3.67;;
24381;SDS011;12502;50.678;7.172;2022-09-12T14:33:49;4.28;;;3.20;;
24381;SDS011;12502;50.678;7.172;2022-09-12T14:38:56;4.13;;;2.92;;
24381;SDS011;12502;50.678;7.172;2022-09-12T14:44:02;3.85;;;3.05;;
24381;SDS011;12502;50.678;7.172;2022-09-12T14:49:41;4.25;;;3.10;;
24381;SDS011;12502;50.678;7.172;2022-09-12T14:54:37;5.40;;;2.58;;
24381;SDS011;12502;50.678;7.172;2022-09-12T14:59:40;2.90;;;2.53;;
24381;SDS011;12502;50.678;7.172;2022-09-12T15:04:45;5.20;;;2.60;;
24381;SDS011;12502;50.678;7.172;2022-09-12T15:09:49;2.70;;;2.40;;
24381;SDS011;12502;50.678;7.172;2022-09-12T15:14:51;2.50;;;2.30;;
24381;SDS011;12502;50.678;7.172;2022-09-12T15:19:53;2.63;;;2.00;;
24381;SDS011;12502;50.678;7.172;2022-09-12T15:24:55;2.78;;;1.98;;
24381;SDS011;12502;50.678;7.172;2022-09-12T15:29:57;3.72;;;1.98;;
24381;SDS011;12502;50.678;7.172;2022-09-12T15:34:59;5.72;;;2.10;;
24381;SDS011;12502;50.678;7.172;2022-09-12T15:40:01;2.20;;;2.00;;
24381;SDS011;12502;50.678;7.172;2022-09-12T15:45:10;2.10;;;1.90;;
24381;SDS011;12502;50.678;7.172;2022-09-12T15:50:32;2.28;;;1.80;;
24381;SDS011;12502;50.678;7.172;2022-09-12T15:55:34;1.88;;;1.58;;
24381;SDS011;12502;50.678;7.172;2022-09-12T16:00:35;3.00;;;1.65;;
24381;SDS011;12502;50.678;7.172;2022-09-12T16:05:37;6.38;;;2.03;;
24381;SDS011;12502;50.678;7.172;2022-09-12T16:10:40;3.45;;;1.70;;
24381;SDS011;12502;50.678;7.172;2022-09-12T16:15:44;2.80;;;1.50;;
24381;SDS011;12502;50.678;7.172;2022-09-12T16:20:46;1.60;;;1.50;;
24381;SDS011;12502;50.678;7.172;2022-09-12T16:25:58;4.90;;;2.20;;
24381;SDS011;12502;50.678;7.172;2022-09-12T16:31:02;4.10;;;1.95;;
24381;SDS011;12502;50.678;7.172;2022-09-12T16:36:07;2.85;;;1.77;;
24381;SDS011;12502;50.678;7.172;2022-09-12T16:46:16;3.58;;;1.73;;
24381;SDS011;12502;50.678;7.172;2022-09-12T16:51:26;3.38;;;1.98;;
24381;SDS011;12502;50.678;7.172;2022-09-12T16:56:33;3.27;;;2.37;;
24381;SDS011;12502;50.678;7.172;2022-09-12T17:01:35;3.08;;;2.20;;
24381;SDS011;12502;50.678;7.172;2022-09-12T17:06:37;2.40;;;2.20;;
24381;SDS011;12502;50.678;7.172;2022-09-12T17:11:38;2.40;;;2.20;;
24381;SDS011;12502;50.678;7.172;2022-09-12T17:16:41;3.53;;;1.85;;
24381;SDS011;12502;50.678;7.172;2022-09-12T17:21:52;3.08;;;1.85;;
24381;SDS011;12502;50.678;7.172;2022-09-12T17:26:54;4.82;;;2.17;;
24381;SDS011;12502;50.678;7.172;2022-09-12T17:31:57;2.60;;;2.30;;
24381;SDS011;12502;50.678;7.172;2022-09-12T17:36:59;2.78;;;2.25;;
24381;SDS011;12502;50.678;7.172;2022-09-12T17:42:00;4.93;;;2.28;;
24381;SDS011;12502;50.678;7.172;2022-09-12T17:47:02;4.18;;;2.40;;
24381;SDS011;12502;50.678;7.172;2022-09-12T17:52:04;2.38;;;2.15;;
24381;SDS011;12502;50.678;7.172;2022-09-12T17:57:06;3.50;;;2.20;;
24381;SDS011;12502;50.678;7.172;2022-09-12T18:02:10;3.55;;;2.20;;
24381;SDS011;12502;50.678;7.172;2022-09-12T18:07:13;3.75;;;2.20;;
24381;SDS011;12502;50.678;7.172;2022-09-12T18:12:16;4.68;;;2.83;;
24381;SDS011;12502;50.678;7.172;2022-09-12T18:17:20;5.72;;;2.63;;
24381;SDS011;12502;50.678;7.172;2022-09-12T18:22:21;2.88;;;2.10;;
24381;SDS011;12502;50.678;7.172;2022-09-12T18:27:23;4.97;;;2.25;;
24381;SDS011;12502;50.678;7.172;2022-09-12T18:32:25;3.47;;;2.15;;
24381;SDS011;12502;50.678;7.172;2022-09-12T18:37:27;2.50;;;2.30;;
24381;SDS011;12502;50.678;7.172;2022-09-12T18:42:29;4.32;;;2.40;;
24381;SDS011;12502;50.678;7.172;2022-09-12T18:47:30;6.55;;;2.85;;
24381;SDS011;12502;50.678;7.172;2022-09-12T18:52:32;5.10;;;2.60;;
24381;SDS011;12502;50.678;7.172;2022-09-12T18:57:34;2.90;;;2.50;;
24381;SDS011;12502;50.678;7.172;2022-09-12T19:02:35;3.92;;;2.20;;
24381;SDS011;12502;50.678;7.172;2022-09-12T19:07:37;5.55;;;2.50;;
24381;SDS011;12502;50.678;7.172;2022-09-12T19:12:39;3.22;;;2.80;;
24381;SDS011;12502;50.678;7.172;2022-09-12T19:17:40;3.72;;;2.63;;
24381;SDS011;12502;50.678;7.172;2022-09-12T19:22:42;3.70;;;2.67;;
24381;SDS011;12502;50.678;7.172;2022-09-12T19:27:44;3.00;;;2.42;;
24381;SDS011;12502;50.678;7.172;2022-09-12T19:32:46;3.40;;;2.60;;
24381;SDS011;12502;50.678;7.172;2022-09-12T19:37:47;3.25;;;2.35;;
24381;SDS011;12502;50.678;7.172;2022-09-12T19:42:49;5.20;;;2.80;;
24381;SDS011;12502;50.678;7.172;2022-09-12T19:47:51;4.47;;;2.80;;
24381;SDS011;12502;50.678;7.172;2022-09-12T19:52:53;4.43;;;3.05;;
24381;SDS011;12502;50.678;7.172;2022-09-12T19:57:54;4.65;;;3.00;;
24381;SDS011;12502;50.678;7.172;2022-09-12T20:02:56;4.88;;;2.88;;
24381;SDS011;12502;50.678;7.172;2022-09-12T20:07:58;5.72;;;3.50;;
24381;SDS011;12502;50.678;7.172;2022-09-12T20:13:00;6.35;;;3.50;;
24381;SDS011;12502;50.678;7.172;2022-09-12T20:18:02;5.18;;;3.78;;
24381;SDS011;12502;50.678;7.172;2022-09-12T20:23:04;8.43;;;3.80;;
24381;SDS011;12502;50.678;7.172;2022-09-12T20:28:05;5.30;;;3.58;;
24381;SDS011;12502;50.678;7.172;2022-09-12T20:33:07;6.13;;;3.35;;
24381;SDS011;12502;50.678;7.172;2022-09-12T20:38:09;5.38;;;3.40;;
24381;SDS011;12502;50.678;7.172;2022-09-12T20:43:11;7.45;;;3.72;;
24381;SDS011;12502;50.678;7.172;2022-09-12T20:48:13;3.88;;;3.05;;
24381;SDS011;12502;50.678;7.172;2022-09-12T20:53:14;3.70;;;3.20;;
24381;SDS011;12502;50.678;7.172;2022-09-12T20:58:16;4.78;;;3.03;;
24381;SDS011;12502;50.678;7.172;2022-09-12T21:03:19;4.28;;;3.47;;
24381;SDS011;12502;50.678;7.172;2022-09-12T21:08:21;4.28;;;3.55;;
24381;SDS011;12502;50.678;7.172;2022-09-12T21:13:23;5.72;;;4.10;;
24381;SDS011;12502;50.678;7.172;2022-09-12T21:18:24;6.13;;;3.80;;
24381;SDS011;12502;50.678;7.172;2022-09-12T21:23:27;5.20;;;4.03;;
24381;SDS011;12502;50.678;7.172;2022-09-12T21:28:29;5.00;;;3.78;;
24381;SDS011;12502;50.678;7.172;2022-09-12T21:33:31;7.22;;;3.90;;
24381;SDS011;12502;50.678;7.172;2022-09-12T21:38:33;7.93;;;4.20;;
24381;SDS011;12502;50.678;7.172;2022-09-12T21:43:35;6.05;;;4.30;;
24381;SDS011;12502;50.678;7.172;2022-09-12T21:48:37;7.75;;;4.20;;
24381;SDS011;12502;50.678;7.172;2022-09-12T21:53:39;7.40;;;4.63;;
24381;SDS011;12502;50.678;7.172;2022-09-12T21:58:41;7.30;;;4.72;;
24381;SDS011;12502;50.678;7.172;2022-09-12T22:03:43;6.45;;;4.18;;
24381;SDS011;12502;50.678;7.172;2022-09-12T22:08:44;6.22;;;4.45;;
24381;SDS011;12502;50.678;7.172;2022-09-12T22:13:46;7.50;;;4.45;;
24381;SDS011;12502;50.678;7.172;2022-09-12T22:18:48;7.10;;;4.60;;
24381;SDS011;12502;50.678;7.172;2022-09-12T22:23:50;5.18;;;4.68;;
24381;SDS011;12502;50.678;7.172;2022-09-12T22:29:11;5.07;;;4.57;;
24381;SDS011;12502;50.678;7.172;2022-09-12T22:34:13;6.07;;;4.80;;
24381;SDS011;12502;50.678;7.172;2022-09-12T22:39:16;7.50;;;5.25;;
24381;SDS011;12502;50.678;7.172;2022-09-12T22:44:18;9.05;;;6.07;;
24381;SDS011;12502;50.678;7.172;2022-09-12T22:49:21;7.53;;;5.63;;
24381;SDS011;12502;50.678;7.172;2022-09-12T22:54:23;8.02;;;5.88;;
24381;SDS011;12502;50.678;7.172;2022-09-12T22:59:24;6.72;;;5.03;;
24381;SDS011;12502;50.678;7.172;2022-09-12T23:04:26;5.95;;;5.35;;
24381;SDS011;12502;50.678;7.172;2022-09-12T23:09:28;7.82;;;5.13;;
24381;SDS011;12502;50.678;7.172;2022-09-12T23:14:35;5.97;;;4.78;;
24381;SDS011;12502;50.678;7.172;2022-09-12T23:19:37;6.03;;;4.85;;
24381;SDS011;12502;50.678;7.172;2022-09-12T23:24:39;6.90;;;4.63;;
24381;SDS011;12502;50.678;7.172;2022-09-12T23:29:40;5.03;;;4.60;;
24381;SDS011;12502;50.678;7.172;2022-09-12T23:34:42;6.05;;;5.18;;
24381;SDS011;12502;50.678;7.172;2022-09-12T23:39:44;7.38;;;4.90;;
24381;SDS011;12502;50.678;7.172;2022-09-12T23:44:46;7.40;;;4.72;;
24381;SDS011;12502;50.678;7.172;2022-09-12T23:49:48;6.35;;;5.00;;
24381;SDS011;12502;50.678;7.172;2022-09-12T23:54:49;6.05;;;5.18;;
24381;SDS011;12502;50.678;7.172;2022-09-12T23:59:51;6.05;;;5.03;;
